Hilbert, Wisconsin
Current Conditions -  °F | °C
As of 11:45 AM on Wednesday 28 Jan 2015 (Local Time) from KATW Reporting Station
Overcast Overcast  
Wind Chill: 18°   Ceiling: 12000
Heat Index: 28°   Visibility: 10mi
Dew Point: 19°   Wind: 13mph
Humidity: 69%   Direction: 160°SSE
Pressure: 30.13"   Gusts: 21mph
Location:  44.14°N, 88.16°W
Report Text: KATW 281745Z 16011G18KT 10SM OVC120 M02/M07 A3013
Loading
Personal Weather Stations






























Interactive Weather Map New forecast layout! Learn more

10-Day Weather Forecast

Advertisements
Track Severe Weather on mobile